Terminal Aerodrome Forecast
Issued by NWS Shreveport, LA

Home | Current Version | Previous Version | Text Only | Print | Product List | Glossary On
Versions: 1 2 3 4 5 6 7 8 9 10 11 12 13 14 15 16 17 18 19 20 21 22 23 24 25 26 27 28 29 30 31 32 33 34 35 36 37 38 39 40 41 42 43 44
000
FTUS44 KSHV 230546
TAFSHV
TAF
KSHV 230546Z 2306/2406 30018G30KT 3SM SHRA VCTS BKN015CB OVC050
     FM230800 31016G27KT 3SM RA BR OVC015
     FM231200 32015G24KT 6SM -RA BR OVC010
     FM231500 32014G22KT P6SM OVC020
     FM232100 32013G20KT P6SM FEW025 BKN120
     FM240000 30005KT P6SM SKC=

USA.gov is the U.S. government's official web portal to all federal, state and local government web resources and services.